This is the latest recevied weather packets stored in our database for station/object DG7YEO-13. If no packets are shown the sender has not sent any weather packets the latest 10 day(s).
| Time | Temp. | Humidity | Pressure | Rain* | Wind** | Luminosity | Snow |
|---|---|---|---|---|---|---|---|
| 1788036425 | 17.78° C | 95% | 1007.8 hPa | 0.25 mm | - | - | - |
| 1788035525 | 17.78° C | 94% | 1007.7 hPa | 1.78 mm | - | - | - |
| 1788034628 | 17.78° C | 94% | 1008 hPa | 2.79 mm | - | - | - |
| 1788033726 | 18.33° C | 93% | 1008.2 hPa | 3.05 mm | - | - | - |
| 1788032824 | 18.33° C | 92% | 1008.2 hPa | 2.54 mm | - | - | - |
| 1788031925 | 18.89° C | 90% | 1008.3 hPa | 1.27 mm | - | - | - |
| 1788031026 | 19.44° C | 87% | 1008.4 hPa | 0.25 mm | - | - | - |
| 1788030125 | 19.44° C | 85% | 1008.3 hPa | 0 mm | - | - | - |
| 1788029225 | 19.44° C | 85% | 1008.2 hPa | 0 mm | - | - | - |
| 1788028326 | 19.44° C | 86% | 1008.3 hPa | 0 mm | - | - | - |
| 1788027425 | 19.44° C | 87% | 1008.2 hPa | 0 mm | - | - | - |
| 1788026525 | 18.89° C | 88% | 1008.4 hPa | 0 mm | - | - | - |
| 1788025625 | 19.44° C | 88% | 1008.6 hPa | 0 mm | - | - | - |
| 1788024725 | 19.44° C | 88% | 1008.8 hPa | 0.25 mm | - | - | - |
| 1788023825 | 19.44° C | 87% | 1008.8 hPa | 0.51 mm | - | - | - |
| 1788022925 | 19.44° C | 87% | 1009.1 hPa | 1.02 mm | - | - | - |
| 1788022025 | 19.44° C | 85% | 1009.1 hPa | 1.02 mm | - | - | - |
| 1788021125 | 20° C | 83% | 1009.3 hPa | 0.76 mm | - | - | - |
| 1788020225 | 20.56° C | 77% | 1009.6 hPa | 0.51 mm | - | - | - |
| 1788019325 | 22.78° C | 68% | 1009.4 hPa | 0 mm | - | - | - |
| 1788018425 | 23.33° C | 66% | 1009 hPa | 0 mm | - | - | - |
| 1788017525 | 23.89° C | 59% | 1009 hPa | 0 mm | - | - | - |
| 1788016625 | 23.89° C | 58% | 1009.1 hPa | 0 mm | - | - | - |
| 1788015725 | 23.89° C | 58% | 1009.1 hPa | 0 mm | - | - | - |
| 1788014825 | 24.44° C | 58% | 1009.3 hPa | 0 mm | - | - | - |
* Rain latest hour (hover to see other rain measurements)
** Current wind speed in m/s (hover to see current wind gust speed)